createdAt,value
2017-12-11T00:00:43.893Z,7.10
2017-12-11T00:03:11.377Z,7.10
2017-12-11T00:05:38.843Z,7.20
2017-12-11T00:08:06.323Z,7.20
2017-12-11T00:10:33.794Z,7.10
2017-12-11T00:13:01.284Z,7.10
2017-12-11T00:15:28.752Z,7.10
2017-12-11T00:17:57.006Z,7.20
2017-12-11T00:20:24.707Z,7.10
2017-12-11T00:22:52.231Z,7.20
2017-12-11T00:25:19.749Z,7.20
2017-12-11T00:27:47.435Z,7.20
2017-12-11T00:30:14.906Z,7.10
2017-12-11T00:32:42.382Z,7.10
2017-12-11T00:35:09.869Z,7.10
2017-12-11T00:37:38.207Z,7.10
2017-12-11T00:40:05.660Z,7.10
2017-12-11T00:42:33.162Z,7.10
2017-12-11T00:45:00.634Z,7.10
2017-12-11T00:47:28.113Z,7.10
2017-12-11T00:49:56.361Z,7.10
2017-12-11T00:52:23.891Z,7.10
2017-12-11T00:54:51.383Z,7.10
2017-12-11T00:57:18.874Z,7.10
2017-12-11T00:59:46.352Z,7.10
2017-12-11T01:02:14.587Z,7.10
2017-12-11T01:04:42.077Z,7.10
2017-12-11T01:07:10.325Z,7.10
2017-12-11T01:09:37.816Z,7.10
2017-12-11T01:12:05.360Z,7.10
2017-12-11T01:14:32.832Z,7.10
2017-12-11T01:17:00.318Z,7.10
2017-12-11T01:19:28.602Z,7.20
2017-12-11T01:21:56.858Z,7.20
2017-12-11T01:24:24.347Z,7.10
2017-12-11T01:26:52.578Z,7.20
2017-12-11T01:29:20.075Z,7.20
2017-12-11T01:31:47.568Z,7.20
2017-12-11T01:34:15.056Z,7.20
2017-12-11T01:36:42.539Z,7.20
2017-12-11T01:39:10.025Z,7.20
2017-12-11T01:41:37.496Z,7.20
2017-12-11T01:44:05.744Z,7.20
2017-12-11T01:46:33.234Z,7.20
2017-12-11T01:49:00.722Z,7.20
2017-12-11T01:51:28.197Z,7.20
2017-12-11T01:53:55.708Z,7.20
2017-12-11T01:56:23.183Z,7.30
2017-12-11T01:58:50.661Z,7.30
2017-12-11T02:01:18.912Z,7.30
2017-12-11T02:03:46.398Z,7.30
2017-12-11T02:06:14.663Z,7.40
2017-12-11T02:08:42.155Z,7.40
2017-12-11T02:11:10.400Z,7.30
2017-12-11T02:13:37.872Z,7.30
2017-12-11T02:16:05.356Z,7.40
2017-12-11T02:18:33.591Z,7.30
2017-12-11T02:21:01.082Z,7.30
2017-12-11T02:23:28.551Z,7.40
2017-12-11T02:25:56.797Z,7.30
2017-12-11T02:28:24.314Z,7.30
2017-12-11T02:30:52.473Z,7.30
2017-12-11T02:33:19.983Z,7.30
2017-12-11T02:35:47.481Z,7.30
2017-12-11T02:38:24.696Z,7.30
2017-12-11T02:40:52.944Z,7.30
2017-12-11T02:43:20.431Z,7.30
2017-12-11T02:45:48.672Z,7.30
2017-12-11T02:48:16.148Z,7.20
2017-12-11T02:50:43.644Z,7.20
2017-12-11T02:53:11.878Z,7.30
2017-12-11T02:55:39.362Z,7.30
2017-12-11T02:58:06.841Z,7.20
2017-12-11T03:00:34.322Z,7.20
2017-12-11T03:03:01.815Z,7.20
2017-12-11T03:05:29.321Z,7.20
2017-12-11T03:07:56.791Z,7.20
2017-12-11T03:10:24.265Z,7.30
2017-12-11T03:12:51.757Z,7.20
2017-12-11T03:15:19.232Z,7.20
2017-12-11T03:17:46.713Z,7.20
2017-12-11T03:20:14.220Z,7.20
2017-12-11T03:22:41.725Z,7.20
2017-12-11T03:25:09.194Z,7.20
2017-12-11T03:27:36.689Z,7.20
2017-12-11T03:30:04.191Z,7.20
2017-12-11T03:32:31.668Z,7.10
2017-12-11T03:34:59.141Z,7.10
2017-12-11T03:37:26.618Z,7.10
2017-12-11T03:39:54.872Z,7.10
2017-12-11T03:42:22.354Z,7.10
2017-12-11T03:44:49.851Z,7.10
2017-12-11T03:47:17.336Z,7.10
2017-12-11T03:49:44.826Z,7.10
2017-12-11T03:52:12.326Z,7.00
2017-12-11T03:54:40.554Z,7.10
2017-12-11T03:57:08.042Z,7.00
2017-12-11T03:59:35.512Z,7.10
2017-12-11T04:02:03.003Z,7.10
2017-12-11T04:04:30.478Z,7.00
2017-12-11T04:06:57.989Z,7.00
2017-12-11T04:09:25.465Z,7.00
2017-12-11T04:11:52.956Z,7.00
2017-12-11T04:14:20.431Z,7.00
2017-12-11T04:16:47.905Z,7.00
2017-12-11T04:19:15.408Z,7.00
2017-12-11T04:21:42.879Z,7.00
2017-12-11T04:24:10.380Z,7.00
2017-12-11T04:26:37.856Z,7.00
2017-12-11T04:29:05.347Z,7.00
2017-12-11T04:31:32.830Z,7.00
2017-12-11T04:34:00.317Z,7.00
2017-12-11T04:36:27.793Z,7.00
2017-12-11T04:38:55.287Z,7.00
2017-12-11T04:41:22.754Z,7.00
2017-12-11T04:43:50.231Z,7.00
2017-12-11T04:46:17.697Z,7.00
2017-12-11T04:48:45.171Z,7.00
2017-12-11T04:51:12.645Z,6.90
2017-12-11T04:53:40.897Z,7.00
2017-12-11T04:56:08.375Z,6.90
2017-12-11T04:58:35.857Z,7.00
2017-12-11T05:01:04.107Z,7.00
2017-12-11T05:03:31.588Z,7.00
2017-12-11T05:05:59.818Z,7.00
2017-12-11T05:08:27.301Z,6.90
2017-12-11T05:10:54.779Z,7.00
2017-12-11T05:13:22.272Z,7.00
2017-12-11T05:15:50.524Z,7.00
2017-12-11T05:18:18.042Z,7.00
2017-12-11T05:20:45.501Z,7.00
2017-12-11T05:23:13.293Z,7.00
2017-12-11T05:25:40.782Z,7.00
2017-12-11T05:28:08.242Z,7.00
2017-12-11T05:30:35.717Z,7.00
2017-12-11T05:33:03.956Z,7.00
2017-12-11T05:35:31.448Z,7.00
2017-12-11T05:37:58.922Z,7.10
2017-12-11T05:40:26.419Z,7.10
2017-12-11T05:42:53.876Z,7.00
2017-12-11T05:45:21.370Z,7.10
2017-12-11T05:47:48.845Z,7.10
2017-12-11T05:50:16.324Z,7.10
2017-12-11T05:52:43.789Z,7.10
2017-12-11T05:55:11.281Z,7.00
2017-12-11T05:57:39.521Z,7.00
2017-12-11T06:00:07.009Z,7.00
2017-12-11T06:02:35.244Z,7.00
2017-12-11T06:05:02.723Z,7.00
2017-12-11T06:07:30.203Z,7.10
2017-12-11T06:09:57.886Z,7.10
2017-12-11T06:12:25.387Z,7.00
2017-12-11T06:14:52.861Z,7.10
2017-12-11T06:17:20.326Z,7.00
2017-12-11T06:19:47.797Z,7.00
2017-12-11T06:22:15.268Z,7.00
2017-12-11T06:24:42.765Z,7.00
2017-12-11T06:27:10.995Z,7.00
2017-12-11T06:29:38.472Z,7.00
2017-12-11T06:32:05.944Z,7.10
2017-12-11T06:34:33.432Z,7.00
2017-12-11T06:37:00.904Z,7.10
2017-12-11T06:39:29.148Z,7.00
2017-12-11T06:41:56.638Z,7.00
2017-12-11T06:44:24.883Z,7.10
2017-12-11T06:46:52.436Z,7.00
2017-12-11T06:49:20.646Z,7.10
2017-12-11T06:51:48.128Z,7.00
2017-12-11T06:54:16.367Z,7.10
2017-12-11T06:56:43.843Z,7.10
2017-12-11T06:59:11.312Z,7.10
2017-12-11T07:01:38.794Z,7.10
2017-12-11T07:04:07.045Z,7.00
2017-12-11T07:06:34.516Z,7.00
2017-12-11T07:09:02.001Z,7.00
2017-12-11T07:11:30.239Z,7.10
2017-12-11T07:13:57.705Z,7.00
2017-12-11T07:16:26.205Z,7.10
2017-12-11T07:18:53.934Z,7.10
2017-12-11T07:21:21.429Z,7.10
2017-12-11T07:23:48.904Z,7.10
2017-12-11T07:26:16.378Z,7.20
2017-12-11T07:28:44.602Z,7.20
2017-12-11T07:31:12.087Z,7.20
2017-12-11T07:33:39.578Z,7.20
2017-12-11T07:36:07.065Z,7.30
2017-12-11T07:38:34.536Z,7.30
2017-12-11T07:41:02.022Z,7.30
2017-12-11T07:43:29.495Z,7.30
2017-12-11T07:45:56.983Z,7.30
2017-12-11T07:48:24.461Z,7.30
2017-12-11T07:50:52.702Z,7.30
2017-12-11T07:53:20.170Z,7.30
2017-12-11T07:55:47.652Z,7.30
2017-12-11T07:58:15.134Z,7.30
2017-12-11T08:00:43.366Z,7.30
2017-12-11T08:03:10.854Z,7.30
2017-12-11T08:05:38.339Z,7.30
2017-12-11T08:08:06.585Z,7.30
2017-12-11T08:10:34.057Z,7.30
2017-12-11T08:13:01.543Z,7.30
2017-12-11T08:15:29.793Z,7.30
2017-12-11T08:17:57.301Z,7.30
2017-12-11T08:20:25.527Z,7.30
2017-12-11T08:22:53.003Z,7.30
2017-12-11T08:25:20.472Z,7.30
2017-12-11T08:27:47.948Z,7.30
2017-12-11T08:30:15.431Z,7.30
2017-12-11T08:32:43.669Z,7.30
2017-12-11T08:35:11.163Z,7.30
2017-12-11T08:37:39.414Z,7.20
2017-12-11T08:40:06.874Z,7.30
2017-12-11T08:42:34.355Z,7.30
2017-12-11T08:45:01.830Z,7.30
2017-12-11T08:47:30.080Z,7.30
2017-12-11T08:49:57.551Z,7.20
2017-12-11T08:52:25.027Z,7.30
2017-12-11T08:54:52.509Z,7.30
2017-12-11T08:57:20.759Z,7.30
2017-12-11T08:59:48.226Z,7.30
2017-12-11T09:02:15.718Z,7.30
2017-12-11T09:04:43.198Z,7.30
2017-12-11T09:07:10.677Z,7.30
2017-12-11T09:09:38.219Z,7.30
2017-12-11T09:12:05.682Z,7.30
2017-12-11T09:14:33.154Z,7.30
2017-12-11T09:17:00.623Z,7.30
2017-12-11T09:19:28.102Z,7.30
2017-12-11T09:21:55.593Z,7.30
2017-12-11T09:24:23.082Z,7.30
2017-12-11T09:26:50.552Z,7.30
2017-12-11T09:29:18.071Z,7.30
2017-12-11T09:31:45.514Z,7.30
2017-12-11T09:34:13.013Z,7.30
2017-12-11T09:36:40.495Z,7.30
2017-12-11T09:39:08.744Z,7.30
2017-12-11T09:41:36.212Z,7.20
2017-12-11T09:44:03.694Z,7.20
2017-12-11T09:46:31.941Z,7.20
2017-12-11T09:48:59.427Z,7.20
2017-12-11T09:51:27.678Z,7.30
2017-12-11T09:53:55.172Z,7.20
2017-12-11T09:56:23.420Z,7.30
2017-12-11T09:58:50.905Z,7.30
2017-12-11T10:01:18.371Z,7.30
2017-12-11T10:03:45.849Z,7.30
2017-12-11T10:06:14.095Z,7.30
2017-12-11T10:08:41.614Z,7.30
2017-12-11T10:11:09.072Z,7.30
2017-12-11T10:13:36.578Z,7.30
2017-12-11T10:16:04.052Z,7.30
2017-12-11T10:18:31.509Z,7.30
2017-12-11T10:20:58.983Z,7.40
2017-12-11T10:23:26.448Z,7.30
2017-12-11T10:25:53.937Z,7.30
2017-12-11T10:28:21.431Z,7.40
2017-12-11T10:30:48.917Z,7.40
2017-12-11T10:33:16.369Z,7.40
2017-12-11T10:35:43.880Z,7.40
2017-12-11T10:38:12.129Z,7.40
2017-12-11T10:40:39.632Z,7.40
2017-12-11T10:43:07.874Z,7.40
2017-12-11T10:45:35.372Z,7.50
2017-12-11T10:48:03.608Z,7.50
2017-12-11T10:50:31.087Z,7.40
2017-12-11T10:52:58.571Z,7.50
2017-12-11T10:55:26.828Z,7.50
2017-12-11T10:57:54.291Z,7.50
2017-12-11T11:00:21.779Z,7.50
2017-12-11T11:02:50.014Z,7.50
2017-12-11T11:05:17.510Z,7.50
2017-12-11T11:07:44.977Z,7.50
2017-12-11T11:10:13.264Z,7.50
2017-12-11T11:12:41.501Z,7.50
2017-12-11T11:15:08.993Z,7.50
2017-12-11T11:17:36.478Z,7.60
2017-12-11T11:20:04.716Z,7.60
2017-12-11T11:22:32.182Z,7.50
2017-12-11T11:24:59.655Z,7.60
2017-12-11T11:27:27.124Z,7.60
2017-12-11T11:29:54.589Z,7.60
2017-12-11T11:32:22.066Z,7.60
2017-12-11T11:34:50.303Z,7.60
2017-12-11T11:37:17.799Z,7.60
2017-12-11T11:39:46.047Z,7.60
2017-12-11T11:42:13.519Z,7.60
2017-12-11T11:44:41.024Z,7.60
2017-12-11T11:47:09.272Z,7.60
2017-12-11T11:49:36.754Z,7.60
2017-12-11T11:52:05.029Z,7.60
2017-12-11T11:54:32.519Z,7.60
2017-12-11T11:56:59.997Z,7.60
2017-12-11T11:59:27.489Z,7.60
2017-12-11T12:01:54.990Z,7.60
2017-12-11T12:04:23.238Z,7.70
2017-12-11T12:06:50.757Z,7.60
2017-12-11T12:09:18.228Z,7.70
2017-12-11T12:11:45.715Z,7.70
2017-12-11T12:14:13.200Z,7.70
2017-12-11T12:16:40.684Z,7.70
2017-12-11T12:19:08.931Z,7.70
2017-12-11T12:21:36.408Z,7.70
2017-12-11T12:24:03.866Z,7.70
2017-12-11T12:26:31.346Z,7.70
2017-12-11T12:28:59.588Z,7.70
2017-12-11T12:31:27.069Z,7.70
2017-12-11T12:33:54.534Z,7.70
2017-12-11T12:36:22.017Z,7.70
2017-12-11T12:38:50.261Z,7.70
2017-12-11T12:41:17.737Z,7.70
2017-12-11T12:43:45.210Z,7.70
2017-12-11T12:46:14.807Z,7.70
2017-12-11T12:48:42.292Z,7.70
2017-12-11T12:51:10.544Z,7.70
2017-12-11T12:56:29.229Z,7.70
2017-12-11T12:58:56.727Z,7.70
2017-12-11T13:01:26.114Z,7.70
2017-12-11T13:03:53.627Z,7.70
2017-12-11T13:06:21.125Z,7.70
2017-12-11T13:08:48.613Z,7.70
2017-12-11T13:11:16.854Z,7.80
2017-12-11T13:13:44.346Z,7.70
2017-12-11T13:16:12.593Z,7.80
2017-12-11T13:18:40.079Z,7.70
2017-12-11T13:21:07.588Z,7.80
2017-12-11T13:23:35.071Z,7.80
2017-12-11T13:26:02.550Z,7.80
2017-12-11T13:28:30.031Z,7.80
2017-12-11T13:30:57.527Z,7.80
2017-12-11T13:33:25.016Z,7.80
2017-12-11T13:35:52.491Z,7.80
2017-12-11T13:38:19.969Z,7.80
2017-12-11T13:40:47.475Z,7.90
2017-12-11T13:43:14.974Z,7.90
2017-12-11T13:45:42.453Z,7.90
2017-12-11T13:48:09.944Z,7.90
2017-12-11T13:50:38.181Z,7.90
2017-12-11T13:53:05.661Z,7.90
2017-12-11T13:55:33.134Z,7.90
2017-12-11T13:58:00.625Z,7.90
2017-12-11T14:00:28.854Z,8.00
2017-12-11T14:02:56.369Z,7.90
2017-12-11T14:05:24.636Z,7.90
2017-12-11T14:07:52.879Z,7.90
2017-12-11T14:10:20.392Z,7.90
2017-12-11T14:12:48.616Z,7.90
2017-12-11T14:15:16.124Z,7.90
2017-12-11T14:17:44.368Z,7.90
2017-12-11T14:20:11.858Z,7.90
2017-12-11T14:22:39.361Z,7.90
2017-12-11T14:25:06.861Z,7.90
2017-12-11T14:27:34.340Z,7.90
2017-12-11T14:30:01.803Z,7.90
2017-12-11T14:32:29.271Z,7.90
2017-12-11T14:34:56.753Z,7.90
2017-12-11T14:37:25.015Z,7.90
2017-12-11T14:39:52.489Z,7.90
2017-12-11T14:42:20.726Z,7.90
2017-12-11T14:44:48.204Z,7.90
2017-12-11T14:47:15.679Z,7.90
2017-12-11T14:49:43.159Z,7.90
2017-12-11T14:52:11.406Z,7.90
2017-12-11T14:54:38.889Z,7.80
2017-12-11T14:57:06.355Z,7.80
2017-12-11T14:59:34.598Z,7.80
2017-12-11T15:02:02.078Z,7.80
2017-12-11T15:04:29.571Z,7.80
2017-12-11T15:06:57.823Z,7.80
2017-12-11T15:09:25.319Z,7.80
2017-12-11T15:11:53.560Z,7.80
2017-12-11T15:14:21.051Z,7.80
2017-12-11T15:16:48.532Z,7.80
2017-12-11T15:19:16.762Z,7.80
2017-12-11T15:21:45.015Z,7.70
2017-12-11T15:24:12.492Z,7.70
2017-12-11T15:26:39.979Z,7.70
2017-12-11T15:29:07.451Z,7.80
2017-12-11T15:31:34.915Z,7.70
2017-12-11T15:34:02.397Z,7.70
2017-12-11T15:36:30.630Z,7.70
2017-12-11T15:38:58.096Z,7.70
2017-12-11T15:41:25.574Z,7.70
2017-12-11T15:43:53.039Z,7.70
2017-12-11T15:46:20.521Z,7.70
2017-12-11T15:48:48.761Z,7.70
2017-12-11T15:51:16.238Z,7.60
2017-12-11T15:53:43.708Z,7.70
2017-12-11T15:56:11.179Z,7.70
2017-12-11T15:58:38.711Z,7.70
2017-12-11T16:01:06.225Z,7.70
2017-12-11T16:03:34.469Z,7.60
2017-12-11T16:06:01.956Z,7.60
2017-12-11T16:08:30.201Z,7.60
2017-12-11T16:10:57.706Z,7.60
2017-12-11T16:13:25.970Z,7.60
2017-12-11T16:15:53.445Z,7.60
2017-12-11T16:18:21.690Z,7.60
2017-12-11T16:20:49.167Z,7.60
2017-12-11T16:23:16.642Z,7.50
2017-12-11T16:25:44.128Z,7.50
2017-12-11T16:28:12.420Z,7.50
2017-12-11T16:30:39.909Z,7.50
2017-12-11T16:33:07.398Z,7.50
2017-12-11T16:35:34.874Z,7.50
2017-12-11T16:38:02.351Z,7.50
2017-12-11T16:40:30.591Z,7.50
2017-12-11T16:42:58.069Z,7.50
2017-12-11T16:45:25.533Z,7.50
2017-12-11T16:47:53.014Z,7.50
2017-12-11T16:50:21.261Z,7.50
2017-12-11T16:52:48.733Z,7.50
2017-12-11T16:55:16.201Z,7.50
2017-12-11T16:57:43.702Z,7.50
2017-12-11T17:00:11.164Z,7.50
2017-12-11T17:02:38.643Z,7.50
2017-12-11T17:05:06.129Z,7.50
2017-12-11T17:07:33.612Z,7.50
2017-12-11T17:10:01.092Z,7.50
2017-12-11T17:12:29.350Z,7.50
2017-12-11T17:14:56.839Z,7.50
2017-12-11T17:17:25.096Z,7.50
2017-12-11T17:19:52.581Z,7.50
2017-12-11T17:22:20.850Z,7.50
2017-12-11T17:24:48.332Z,7.40
2017-12-11T17:27:16.577Z,7.50
2017-12-11T17:29:44.053Z,7.50
2017-12-11T17:32:12.431Z,7.50
2017-12-11T17:34:39.904Z,7.50
2017-12-11T17:37:08.982Z,7.60
2017-12-11T17:39:36.449Z,7.60
2017-12-11T17:42:03.945Z,7.60
2017-12-11T17:44:32.185Z,7.60
2017-12-11T17:46:59.679Z,7.50
2017-12-11T17:49:27.926Z,7.60
2017-12-11T17:51:55.406Z,7.50
2017-12-11T17:54:22.875Z,7.60
2017-12-11T17:56:50.361Z,7.60
2017-12-11T17:59:18.601Z,7.60
2017-12-11T18:01:46.076Z,7.60
2017-12-11T18:04:13.551Z,7.60
2017-12-11T18:06:41.796Z,7.70
2017-12-11T18:09:09.289Z,7.60
2017-12-11T18:11:36.773Z,7.70
2017-12-11T18:14:05.011Z,7.70
2017-12-11T18:16:32.473Z,7.70
2017-12-11T18:18:59.971Z,7.70
2017-12-11T18:21:28.220Z,7.70
2017-12-11T18:23:55.710Z,7.70
2017-12-11T18:26:23.946Z,7.70
2017-12-11T18:28:51.435Z,7.70
2017-12-11T18:31:18.918Z,7.70
2017-12-11T18:33:47.168Z,7.70
2017-12-11T18:36:14.634Z,7.80
2017-12-11T18:38:42.127Z,7.80
2017-12-11T18:41:10.358Z,7.80
2017-12-11T18:43:37.842Z,7.70
2017-12-11T18:46:05.307Z,7.80
2017-12-11T18:48:32.802Z,7.80
2017-12-11T18:51:01.038Z,7.80
2017-12-11T18:53:29.306Z,7.80
2017-12-11T18:55:56.770Z,7.70
2017-12-11T18:58:24.243Z,7.80
2017-12-11T19:00:51.722Z,7.70
2017-12-11T19:03:19.217Z,7.80
2017-12-11T19:05:47.465Z,7.80
2017-12-11T19:08:14.944Z,7.80
2017-12-11T19:10:42.420Z,7.80
2017-12-11T19:13:10.658Z,7.80
2017-12-11T19:15:38.139Z,7.80
2017-12-11T19:18:05.615Z,7.80
2017-12-11T19:20:33.864Z,7.80
2017-12-11T19:23:01.344Z,7.80
2017-12-11T19:25:28.827Z,7.90
2017-12-11T19:27:57.076Z,7.90
2017-12-11T19:30:24.568Z,7.90
2017-12-11T19:32:52.809Z,7.90
2017-12-11T19:35:20.280Z,7.90
2017-12-11T19:37:47.751Z,7.90
2017-12-11T19:40:15.250Z,7.90
2017-12-11T19:42:43.490Z,7.90
2017-12-11T19:45:10.988Z,7.90
2017-12-11T19:47:38.471Z,7.90
2017-12-11T19:50:06.726Z,7.90
2017-12-11T19:52:34.960Z,7.90
2017-12-11T19:55:02.442Z,7.90
2017-12-11T19:57:29.912Z,7.90
2017-12-11T19:59:57.400Z,7.90
2017-12-11T20:02:24.885Z,7.90
2017-12-11T20:04:52.350Z,7.90
2017-12-11T20:07:19.838Z,7.90
2017-12-11T20:09:47.375Z,7.90
2017-12-11T20:12:14.854Z,7.90
2017-12-11T20:14:42.339Z,7.90
2017-12-11T20:17:09.826Z,8.00
2017-12-11T20:19:38.071Z,8.00
2017-12-11T20:22:05.600Z,7.90
2017-12-11T20:24:33.066Z,8.00
2017-12-11T20:27:00.556Z,7.90
2017-12-11T20:29:28.020Z,7.90
2017-12-11T20:31:55.502Z,7.90
2017-12-11T20:34:22.968Z,7.90
2017-12-11T20:36:51.220Z,7.90
2017-12-11T20:39:18.688Z,7.90
2017-12-11T20:41:46.161Z,8.00
2017-12-11T20:44:13.634Z,7.90
2017-12-11T20:46:41.122Z,8.00
2017-12-11T20:49:09.358Z,8.00
2017-12-11T20:51:36.859Z,7.90
2017-12-11T20:54:05.093Z,8.00
2017-12-11T20:56:32.576Z,8.00
2017-12-11T20:59:00.037Z,8.00
2017-12-11T21:01:27.505Z,8.00
2017-12-11T21:03:54.975Z,8.00
2017-12-11T21:06:22.463Z,8.00
2017-12-11T21:08:50.708Z,8.00
2017-12-11T21:11:18.233Z,8.00
2017-12-11T21:13:45.656Z,8.10
2017-12-11T21:16:13.923Z,8.00
2017-12-11T21:18:41.389Z,8.00
2017-12-11T21:21:08.870Z,8.10
2017-12-11T21:23:37.110Z,8.10
2017-12-11T21:26:04.586Z,8.10
2017-12-11T21:28:32.084Z,8.10
2017-12-11T21:30:59.562Z,8.10
2017-12-11T21:33:27.034Z,8.10
2017-12-11T21:35:54.513Z,8.10
2017-12-11T21:38:21.998Z,8.10
2017-12-11T21:40:49.475Z,8.10
2017-12-11T21:43:16.954Z,8.10
2017-12-11T21:45:45.203Z,8.10
2017-12-11T21:48:12.700Z,8.00
2017-12-11T21:50:40.940Z,8.10
2017-12-11T21:53:08.414Z,8.00
2017-12-11T21:55:35.888Z,8.10
2017-12-11T21:58:04.130Z,8.10
2017-12-11T22:00:31.620Z,8.10
2017-12-11T22:02:59.094Z,8.10
2017-12-11T22:05:27.510Z,8.10
2017-12-11T22:07:54.988Z,8.10
2017-12-11T22:10:22.534Z,8.10
2017-12-11T22:12:49.953Z,8.10
2017-12-11T22:15:17.419Z,8.10
2017-12-11T22:17:44.931Z,8.10
2017-12-11T22:20:12.406Z,8.10
2017-12-11T22:22:39.895Z,8.10
2017-12-11T22:25:07.374Z,8.10
2017-12-11T22:27:34.854Z,8.10
2017-12-11T22:30:03.095Z,8.10
2017-12-11T22:32:30.586Z,8.10
2017-12-11T22:34:58.053Z,8.10
2017-12-11T22:37:26.290Z,8.20
2017-12-11T22:39:53.777Z,8.20
2017-12-11T22:42:21.246Z,8.20
2017-12-11T22:44:48.743Z,8.20
2017-12-11T22:47:16.205Z,8.20
2017-12-11T22:49:43.685Z,8.20
2017-12-11T22:52:11.160Z,8.20
2017-12-11T22:54:38.642Z,8.20
2017-12-11T22:57:06.119Z,8.20
2017-12-11T22:59:33.591Z,8.20
2017-12-11T23:02:01.070Z,8.20
2017-12-11T23:04:28.540Z,8.20
2017-12-11T23:06:56.028Z,8.20
2017-12-11T23:09:23.502Z,8.20
2017-12-11T23:11:50.975Z,8.20
2017-12-11T23:14:18.476Z,8.20
2017-12-11T23:16:45.944Z,8.20
2017-12-11T23:19:13.429Z,8.20
2017-12-11T23:21:41.654Z,8.10
2017-12-11T23:24:09.139Z,8.10
2017-12-11T23:26:36.616Z,8.10
2017-12-11T23:29:04.133Z,8.10
2017-12-11T23:31:31.598Z,8.10
2017-12-11T23:33:59.068Z,8.10
2017-12-11T23:36:26.548Z,8.10
2017-12-11T23:38:54.029Z,8.00
2017-12-11T23:41:21.514Z,8.00
2017-12-11T23:43:49.764Z,8.00
2017-12-11T23:46:17.250Z,8.00
2017-12-11T23:48:45.485Z,8.00
2017-12-11T23:51:12.978Z,8.00
2017-12-11T23:53:40.460Z,8.00
2017-12-11T23:56:08.714Z,7.90
2017-12-11T23:58:36.182Z,7.80
